Monroe County Airport Bloomington US
ICAO: KBMG
IATA: BMG
Category: Medium
Scheduled Services: No

Elevation: 846 ft
TransAlt. 18000 ft.

Airport Communications:
HULMAN APP/DEP:128.05
ASOS:110.2
CTAF:120.775
GND:121.9
TERRE HAUTE RDO:110.2
BLOOMINGTON TWR:120.775
UNICOM:122.95

KBMG Zoom In..

Runways:

(A) RW 06 length 3798 ft width 100 ft
---- / hdg 64

(B) RW 17 length 6500 ft width 150 ft
---- / hdg 174

(C) RW 24 length 3798 ft width 100 ft
---- / hdg 244

(D) RW 35 length 6500 ft width 150 ft
ILS 108.30 / hdg 354

Location; KBMG
Day. 30 / Time. 21.53 Zulu
* Altimeter: 30.14
* Temperature: 23° c. 73.4°f.
* Wind from: 350° Speed 06 kn.
Dewpoint: 09° c.
Visibility: 10 Statute Miles.
Clouds: Scattered 6000 ft.

KBMG 302153Z 35006KT 10SM SCT060 23/09 A3014 RMK AO2 SLP200 T02330089


Wind From 350°
Speed 06 kn.

 
 
jpsmedia worldairports.se 2020   terms of use